createdAt,value
2022-12-01T03:36:01.488Z,-10.12
2022-12-01T03:38:54.696Z,-10.12
2022-12-01T03:41:48.895Z,-10.15
2022-12-01T03:44:43.533Z,-10.11
2022-12-01T03:47:35.718Z,-10.10
2022-12-01T03:50:31.114Z,-10.09
2022-12-01T03:53:22.971Z,-10.03
2022-12-01T03:56:12.306Z,-10.07
2022-12-01T03:59:02.954Z,-10.04
2022-12-01T04:01:51.471Z,-10.08
2022-12-01T04:04:39.130Z,-10.02
2022-12-01T04:07:26.794Z,-10.00
2022-12-01T04:10:14.820Z,-9.97
2022-12-01T04:13:02.475Z,-9.94
2022-12-01T04:15:51.815Z,-9.90
2022-12-01T04:18:39.455Z,-9.84
2022-12-01T04:21:27.123Z,-9.81
2022-12-01T04:24:14.729Z,-9.80
2022-12-01T04:27:02.384Z,-9.80
2022-12-01T04:29:50.125Z,-9.82
2022-12-01T04:32:39.908Z,-9.85
2022-12-01T04:35:27.542Z,-9.89
2022-12-01T04:38:15.241Z,-9.88
2022-12-01T04:41:09.403Z,-9.88
2022-12-01T04:43:57.022Z,-9.89
2022-12-01T04:46:45.088Z,-9.86
2022-12-01T04:49:33.432Z,-9.81
2022-12-01T04:52:21.092Z,-9.81
2022-12-01T04:55:09.169Z,-9.80
2022-12-01T04:57:58.077Z,-9.79
2022-12-01T05:00:45.770Z,-9.77
2022-12-01T05:03:37.476Z,-9.76
2022-12-01T05:06:27.755Z,-9.74
2022-12-01T05:09:17.708Z,-9.72
2022-12-01T05:12:05.736Z,-9.73
2022-12-01T05:14:53.381Z,-9.68
2022-12-01T05:17:41.147Z,-9.66
2022-12-01T05:20:47.416Z,-9.59
2022-12-01T05:23:36.617Z,-9.56
2022-12-01T05:26:24.215Z,-9.50
2022-12-01T05:29:13.120Z,-9.45
2022-12-01T05:32:01.495Z,-9.41
2022-12-01T05:34:49.141Z,-9.42
2022-12-01T05:37:36.750Z,-9.36
2022-12-01T05:40:24.333Z,-9.31
2022-12-01T05:43:11.932Z,-9.25
2022-12-01T05:45:59.717Z,-9.19
2022-12-01T05:48:47.411Z,-9.17
2022-12-01T05:51:35.081Z,-9.20
2022-12-01T05:54:22.706Z,-9.13
2022-12-01T05:57:10.289Z,-9.06
2022-12-01T05:59:57.911Z,-9.02
2022-12-01T06:02:45.909Z,-8.95
2022-12-01T06:05:33.580Z,-8.91
2022-12-01T06:08:21.201Z,-8.82
2022-12-01T06:11:09.571Z,-8.77
2022-12-01T06:13:57.143Z,-8.70
2022-12-01T06:16:44.799Z,-8.65
2022-12-01T06:19:32.408Z,-8.56
2022-12-01T06:22:20.038Z,-8.45
2022-12-01T06:25:08.558Z,-8.41
2022-12-01T06:27:58.389Z,-8.35
2022-12-01T06:30:46.014Z,-8.27
2022-12-01T06:33:33.714Z,-8.18
2022-12-01T06:36:21.353Z,-8.05
2022-12-01T06:39:10.157Z,-7.92
2022-12-01T06:41:57.749Z,-7.88
2022-12-01T06:44:46.255Z,-7.81
2022-12-01T06:47:33.967Z,-7.74
2022-12-01T06:50:21.853Z,-7.70
2022-12-01T06:53:10.093Z,-7.68
2022-12-01T06:56:01.920Z,-7.68
2022-12-01T06:58:50.640Z,-7.70
2022-12-01T07:01:39.062Z,-7.68
2022-12-01T07:04:26.818Z,-7.63
2022-12-01T07:07:14.516Z,-7.59
2022-12-01T07:10:02.113Z,-7.59
2022-12-01T07:12:51.612Z,-7.60
2022-12-01T07:15:39.236Z,-7.60
2022-12-01T07:18:26.935Z,-7.60
2022-12-01T07:21:15.851Z,-7.54
2022-12-01T07:24:03.550Z,-7.49
2022-12-01T07:26:51.148Z,-7.46
2022-12-01T07:29:38.739Z,-7.40
2022-12-01T07:32:26.363Z,-7.37
2022-12-01T07:35:14.133Z,-7.38
2022-12-01T07:38:01.784Z,-7.36
2022-12-01T07:40:49.415Z,-7.33
2022-12-01T07:43:37.502Z,-7.23
2022-12-01T07:46:27.069Z,-7.16
2022-12-01T07:49:15.672Z,-7.13
2022-12-01T07:52:03.396Z,-7.06
2022-12-01T07:54:50.957Z,-7.05
2022-12-01T07:57:38.552Z,-7.04
2022-12-01T08:00:26.271Z,-7.05
2022-12-01T08:03:14.257Z,-6.98
2022-12-01T08:06:03.132Z,-6.97
2022-12-01T08:08:51.379Z,-7.00
2022-12-01T08:11:39.044Z,-7.05
2022-12-01T08:14:26.710Z,-7.04
2022-12-01T08:17:14.343Z,-6.97
2022-12-01T08:20:01.947Z,-6.89
2022-12-01T08:22:50.819Z,-6.89
2022-12-01T08:25:38.412Z,-6.92
2022-12-01T08:28:25.977Z,-6.90
2022-12-01T08:31:23.521Z,-6.84
2022-12-01T08:34:11.377Z,-6.86
2022-12-01T08:36:59.191Z,-6.90
2022-12-01T08:39:47.040Z,-6.90
2022-12-01T08:42:34.812Z,-6.93
2022-12-01T08:45:23.201Z,-6.96
2022-12-01T08:48:10.862Z,-6.90
2022-12-01T08:51:18.447Z,-6.85
2022-12-01T08:54:06.231Z,-6.79
2022-12-01T08:56:53.840Z,-6.62
2022-12-01T08:59:41.504Z,-6.49
2022-12-01T09:02:29.333Z,-6.43
2022-12-01T09:05:17.130Z,-6.43
2022-12-01T09:08:23.261Z,-6.41
2022-12-01T09:11:14.390Z,-6.36
2022-12-01T09:14:02.054Z,-6.32
2022-12-01T09:16:50.794Z,-6.28
2022-12-01T09:19:38.403Z,-6.26
2022-12-01T09:22:26.006Z,-6.19
2022-12-01T09:25:17.895Z,-6.12
2022-12-01T09:28:05.492Z,-6.03
2022-12-01T09:30:53.053Z,-5.94
2022-12-01T09:33:41.060Z,-5.83
2022-12-01T09:36:30.325Z,-5.70
2022-12-01T09:39:20.306Z,-5.55
2022-12-01T09:42:18.621Z,-5.44
2022-12-01T09:45:07.299Z,-5.35
2022-12-01T09:47:59.108Z,-5.27
2022-12-01T09:50:46.733Z,-5.28
2022-12-01T09:53:34.489Z,-5.25
2022-12-01T09:56:32.307Z,-5.22
2022-12-01T09:59:25.547Z,-5.31
2022-12-01T10:02:29.560Z,-5.31
2022-12-01T10:05:24.765Z,-5.39
2022-12-01T10:08:16.652Z,-5.39
2022-12-01T10:11:24.560Z,-5.31
2022-12-01T10:14:20.537Z,-5.19
2022-12-01T10:17:49.537Z,-4.82
2022-12-01T10:20:49.047Z,-3.87
2022-12-01T10:23:51.904Z,-3.72
2022-12-01T10:26:57.562Z,-3.75
2022-12-01T10:30:01.040Z,-3.88
2022-12-01T10:32:53.929Z,-4.04
2022-12-01T10:35:41.832Z,-4.20
2022-12-01T10:38:59.600Z,-4.32
2022-12-01T10:41:49.061Z,-4.41
2022-12-01T10:44:36.881Z,-4.41
2022-12-01T10:47:26.493Z,-4.47
2022-12-01T10:50:28.126Z,-4.48
2022-12-01T10:53:30.984Z,-4.46
2022-12-01T10:56:21.633Z,-4.44
2022-12-01T10:59:32.504Z,-4.58
2022-12-01T11:02:26.744Z,-4.84
2022-12-01T11:05:28.454Z,-4.92
2022-12-01T11:08:24.635Z,-4.96
2022-12-01T11:11:30.430Z,-5.01
2022-12-01T11:14:24.235Z,-5.01
2022-12-01T11:17:27.000Z,-4.95
2022-12-01T11:20:40.789Z,-4.89
2022-12-01T11:23:29.820Z,-4.87
2022-12-01T11:26:31.145Z,-4.81
2022-12-01T11:29:29.543Z,-4.75
2022-12-01T11:32:25.181Z,-4.74
2022-12-01T11:35:12.727Z,-4.79
2022-12-01T11:41:26.921Z,-4.86
2022-12-01T11:47:30.105Z,-5.02
2022-12-01T11:50:26.693Z,-5.01
2022-12-01T11:53:27.843Z,-5.03
2022-12-01T11:56:30.261Z,-5.08
2022-12-01T11:59:25.947Z,-5.15
2022-12-01T12:02:31.882Z,-5.18
2022-12-01T12:05:39.748Z,-5.22
2022-12-01T12:08:30.001Z,-5.28
2022-12-01T12:11:26.452Z,-5.35
2022-12-01T12:14:20.214Z,-5.43
2022-12-01T12:17:38.200Z,-5.42
2022-12-01T12:20:44.330Z,-5.49
2022-12-01T12:23:53.335Z,-5.53
2022-12-01T12:27:00.316Z,-5.61
2022-12-01T12:30:03.041Z,-5.71
2022-12-01T12:33:10.783Z,-5.84
2022-12-01T12:36:04.125Z,-5.94
2022-12-01T12:39:17.158Z,-6.03
2022-12-01T12:42:18.094Z,-6.17
2022-12-01T12:45:08.967Z,-6.25
2022-12-01T12:48:25.957Z,-6.34
2022-12-01T12:51:22.851Z,-6.44
2022-12-01T12:54:38.496Z,-6.50
2022-12-01T12:57:39.173Z,-6.57
2022-12-01T13:00:29.261Z,-6.61
2022-12-01T13:03:21.769Z,-6.63
2022-12-01T13:06:14.822Z,-6.60
2022-12-01T13:09:11.346Z,-6.58
2022-12-01T13:12:06.516Z,-6.56
2022-12-01T13:15:21.322Z,-6.52
2022-12-01T13:18:26.789Z,-6.52
2022-12-01T13:21:20.423Z,-6.55
2022-12-01T13:24:13.111Z,-6.57
2022-12-01T13:27:11.303Z,-6.57
2022-12-01T13:29:59.890Z,-6.60
2022-12-01T13:32:48.808Z,-6.61
2022-12-01T13:35:38.802Z,-6.58
2022-12-01T13:38:30.467Z,-6.57
2022-12-01T13:41:18.053Z,-6.58
2022-12-01T13:44:23.328Z,-6.57
2022-12-01T13:47:10.951Z,-6.52
2022-12-01T13:50:37.210Z,-6.48
2022-12-01T13:53:31.103Z,-6.49
2022-12-01T13:56:18.805Z,-6.52
2022-12-01T14:00:01.507Z,-6.51
2022-12-01T14:03:15.023Z,-6.54
2022-12-01T14:06:09.747Z,-6.60
2022-12-01T14:09:13.775Z,-6.61
2022-12-01T14:12:14.863Z,-6.66
2022-12-01T14:15:27.639Z,-6.68
2022-12-01T14:18:18.283Z,-6.69
2022-12-01T14:21:10.119Z,-6.70
2022-12-01T14:24:05.018Z,-6.76
2022-12-01T14:26:53.659Z,-6.83
2022-12-01T14:29:43.293Z,-6.81
2022-12-01T14:32:31.275Z,-6.82
2022-12-01T14:35:19.120Z,-6.77
2022-12-01T14:38:11.903Z,-6.76
2022-12-01T14:41:00.379Z,-6.72
2022-12-01T14:44:08.383Z,-6.74
2022-12-01T14:47:11.852Z,-6.76
2022-12-01T14:50:25.016Z,-6.78
2022-12-01T14:53:29.992Z,-6.83
2022-12-01T14:59:39.550Z,-6.85
2022-12-01T15:00:17.746Z,-6.91
2022-12-01T15:03:59.374Z,-6.96
2022-12-01T15:07:01.021Z,-7.01
2022-12-01T15:10:11.176Z,-6.95
2022-12-01T15:13:14.815Z,-6.95
2022-12-01T15:16:05.981Z,-7.00
2022-12-01T15:18:56.989Z,-7.02
2022-12-01T15:21:45.731Z,-7.01
2022-12-01T15:24:41.790Z,-7.02
2022-12-01T15:28:21.341Z,-7.04
2022-12-01T15:31:20.014Z,-7.04
2022-12-01T15:34:18.478Z,-7.05
2022-12-01T15:37:11.197Z,-7.01
2022-12-01T15:40:59.704Z,-6.97
2022-12-01T15:43:40.054Z,-6.91
2022-12-01T15:46:49.054Z,-6.92
2022-12-01T15:49:50.053Z,-6.94
2022-12-01T15:52:43.101Z,-6.86
2022-12-01T15:55:35.631Z,-6.85
2022-12-01T15:58:26.060Z,-6.80
2022-12-01T16:01:32.773Z,-6.80
2022-12-01T16:04:24.363Z,-6.80
2022-12-01T16:08:04.568Z,-6.82
2022-12-01T16:11:17.295Z,-6.86
2022-12-01T16:14:08.267Z,-6.94
2022-12-01T16:16:56.222Z,-7.02
2022-12-01T16:19:45.622Z,-7.08
2022-12-01T16:22:34.442Z,-7.09
2022-12-01T16:25:36.463Z,-7.12
2022-12-01T16:28:31.347Z,-7.14
2022-12-01T16:31:22.799Z,-7.19
2022-12-01T16:34:44.177Z,-7.21
2022-12-01T16:37:26.267Z,-7.29
2022-12-01T16:40:15.554Z,-7.34
2022-12-01T16:43:03.557Z,-7.32
2022-12-01T16:45:58.993Z,-7.33
2022-12-01T16:48:46.713Z,-7.31
2022-12-01T16:51:54.891Z,-7.26
2022-12-01T16:54:44.038Z,-7.25
2022-12-01T16:57:31.683Z,-7.23
2022-12-01T17:00:19.779Z,-7.22
2022-12-01T17:03:08.120Z,-7.18
2022-12-01T17:05:56.030Z,-7.15
2022-12-01T17:08:44.000Z,-7.17
2022-12-01T17:11:32.644Z,-7.16
2022-12-01T17:14:20.364Z,-7.16
2022-12-01T17:17:08.022Z,-7.17
2022-12-01T17:19:55.806Z,-7.16
2022-12-01T17:22:43.876Z,-7.14
2022-12-01T17:25:32.256Z,-7.15
2022-12-01T17:28:20.333Z,-7.19
2022-12-01T17:31:08.757Z,-7.17
2022-12-01T17:33:56.494Z,-7.20
2022-12-01T17:36:44.397Z,-7.22
2022-12-01T17:39:32.118Z,-7.24
2022-12-01T17:42:20.044Z,-7.23
2022-12-01T17:45:08.454Z,-7.32
2022-12-01T17:47:56.022Z,-7.38
2022-12-01T17:50:45.012Z,-7.43
2022-12-01T17:53:33.225Z,-7.51
2022-12-01T17:56:21.080Z,-7.58
2022-12-01T17:59:09.664Z,-7.63
2022-12-01T18:01:57.864Z,-7.71
2022-12-01T18:04:46.466Z,-7.76
2022-12-01T18:07:34.365Z,-7.74
2022-12-01T18:10:22.317Z,-7.72
2022-12-01T18:13:10.193Z,-7.72
2022-12-01T18:19:02.699Z,-7.79
2022-12-01T18:21:51.250Z,-7.79
2022-12-01T18:24:39.264Z,-7.81
2022-12-01T18:28:02.572Z,-7.87
2022-12-01T18:30:59.677Z,-7.82
2022-12-01T18:34:27.603Z,-7.84
2022-12-01T18:37:29.554Z,-7.86
2022-12-01T18:40:31.588Z,-7.87
2022-12-01T18:47:00.820Z,-7.91
2022-12-01T18:50:45.970Z,-7.92
2022-12-01T19:09:54.612Z,-8.19
2022-12-01T19:13:00.846Z,-8.22
2022-12-01T19:15:57.026Z,-8.25
2022-12-01T19:18:54.002Z,-8.29
2022-12-01T19:21:54.611Z,-8.35
2022-12-01T19:25:12.465Z,-8.40
2022-12-01T19:33:58.036Z,-8.70
2022-12-01T19:42:01.088Z,-8.84
2022-12-01T19:45:37.577Z,-8.85
2022-12-01T19:48:31.239Z,-8.92
2022-12-01T19:51:28.313Z,-8.91
2022-12-01T19:54:22.162Z,-8.95
2022-12-01T19:57:19.622Z,-8.93
2022-12-01T20:00:29.647Z,-8.92
2022-12-01T20:03:22.757Z,-8.98
2022-12-01T20:06:36.647Z,-9.04
2022-12-01T20:09:37.731Z,-9.07
2022-12-01T20:13:00.886Z,-8.96
2022-12-01T20:32:43.279Z,-8.99
2022-12-01T20:36:20.644Z,-8.99
2022-12-01T20:39:21.161Z,-8.94
2022-12-01T20:42:59.143Z,-8.92
2022-12-01T20:46:01.562Z,-8.98
2022-12-01T20:52:20.376Z,-9.12
2022-12-01T20:55:38.331Z,-9.18
2022-12-01T20:59:02.004Z,-9.16
2022-12-01T21:02:52.652Z,-9.20
2022-12-01T21:15:39.148Z,-9.16
2022-12-01T21:18:47.025Z,-9.13
2022-12-01T21:21:41.985Z,-9.11
2022-12-01T21:24:34.989Z,-9.12
2022-12-01T21:27:25.702Z,-9.04
2022-12-01T21:30:22.189Z,-8.94
2022-12-01T21:33:27.482Z,-8.91
2022-12-01T21:36:23.749Z,-8.98
2022-12-01T21:39:15.195Z,-8.93
2022-12-01T21:42:15.382Z,-8.95
2022-12-01T21:45:16.200Z,-8.99
2022-12-01T21:48:16.231Z,-9.03
2022-12-01T21:51:31.188Z,-9.08
2022-12-01T21:54:23.121Z,-9.10
2022-12-01T21:57:37.379Z,-9.10
2022-12-01T22:00:34.906Z,-9.21
2022-12-01T22:03:27.751Z,-9.19
2022-12-01T22:06:30.048Z,-9.18
2022-12-01T22:09:31.874Z,-9.24
2022-12-01T22:12:28.272Z,-9.25
2022-12-01T22:15:40.664Z,-9.26
2022-12-01T22:18:39.531Z,-9.28
2022-12-01T22:21:33.706Z,-9.28
2022-12-01T22:24:33.371Z,-9.30
2022-12-01T22:27:40.317Z,-9.29
2022-12-01T22:30:28.398Z,-9.30
2022-12-01T22:33:22.945Z,-9.30
2022-12-01T22:36:30.435Z,-9.23
2022-12-01T22:39:34.177Z,-9.19
2022-12-01T22:42:35.350Z,-9.17
2022-12-01T22:45:27.039Z,-9.24
2022-12-01T22:48:35.231Z,-9.24
2022-12-01T22:51:42.894Z,-9.24
2022-12-01T22:55:02.637Z,-9.31
2022-12-01T22:57:53.105Z,-9.31
2022-12-01T23:00:41.827Z,-9.30
2022-12-01T23:03:29.806Z,-9.31
2022-12-01T23:06:55.031Z,-9.31
2022-12-01T23:09:44.775Z,-9.35
2022-12-01T23:12:34.452Z,-9.35
2022-12-01T23:15:33.394Z,-9.35
2022-12-01T23:18:24.295Z,-9.38
2022-12-01T23:21:12.504Z,-9.33
2022-12-01T23:24:03.074Z,-9.37
2022-12-01T23:26:50.987Z,-9.28
2022-12-01T23:29:39.808Z,-9.24
2022-12-01T23:32:27.614Z,-9.25
2022-12-01T23:35:18.026Z,-9.21
2022-12-01T23:38:08.555Z,-9.22
2022-12-01T23:41:00.975Z,-9.24
2022-12-01T23:43:49.183Z,-9.17
2022-12-01T23:46:37.049Z,-9.17
2022-12-01T23:49:32.052Z,-9.15
2022-12-01T23:52:21.332Z,-9.14
2022-12-01T23:55:20.425Z,-9.06
2022-12-01T23:58:13.823Z,-9.01
